MAA weather

Chennai International Airport
Chennai, Tamil Nadu, India

Public forecast

Using degrees Celsius for public forecast. Weather courtesy of forecast.io.

Current aviation weather report (METAR) for Chennai International Airport

Retrieved 2019/10/14 00:30 UTC (8 minutes ago):

VOMM 140030Z 28003KT 5000 BR SCT020 FEW025TCU 27/25 Q1012 NOSIG

Aviation forecast (TAF) for Chennai International Airport

Retrieved 2019-10-14 00:00 UTC (38 minutes ago):

TAF VOMM 132300Z 1400/1506 VRB02KT 5000 HZ SCT020 SCT100 BECMG 1403/1404 12010KT 6000 TEMPO 1409/1415 SCT020 FEW025CB BKN080 BECMG 1421/1422 VRB02KT 5000 HZ BECMG 1503/1504 12010KT 6000